Time;durP1;ratioP1;P1;durP2;ratioP2;P2;SDS_P1;SDS_P2;PMS_P1;PMS_P2;Temp;Humidity;BMP_temperature;BMP_pressure;BME280_temperature;BME280_humidity;BME280_pressure;Samples;Min_cycle;Max_cycle;Signal;HPM_P1;HPM_P2
2023/10/10 00:01:14;;;;;;;15.20;6.50;;;;;;;9.90;66.93;100340.59;5140868;27;20403;-82
2023/10/10 00:03:42;;;;;;;14.77;6.35;;;;;;;9.75;69.18;100350.66;5134832;27;20019;-82
2023/10/10 00:06:08;;;;;;;15.47;6.93;;;;;;;10.09;67.97;100341.56;5135295;27;20027;-82
2023/10/10 00:08:41;;;;;;;15.48;6.90;;;;;;;10.65;66.00;100340.19;5133748;27;20276;-82
2023/10/10 00:11:18;;;;;;;14.68;6.45;;;;;;;10.67;66.27;100331.97;5136295;27;20118;-83
2023/10/10 00:13:46;;;;;;;17.02;7.00;;;;;;;10.84;65.71;100349.91;5141481;27;20115;-84
2023/10/10 00:16:35;;;;;;;22.70;7.78;;;;;;;10.99;64.98;100355.00;5137415;27;20447;-83
2023/10/10 00:19:12;;;;;;;20.05;8.20;;;;;;;10.97;63.77;100329.53;5138558;27;20093;-83
2023/10/10 00:21:38;;;;;;;18.17;7.53;;;;;;;11.07;64.68;100332.53;5138396;27;20095;-82
2023/10/10 00:24:04;;;;;;;16.85;7.65;;;;;;;10.95;64.46;100296.91;5149032;27;20026;-84
2023/10/10 00:26:29;;;;;;;20.77;9.25;;;;;;;10.96;64.90;100303.91;5139443;27;20069;-83
2023/10/10 00:28:56;;;;;;;17.77;8.13;;;;;;;10.88;64.36;100290.81;5154609;27;20042;-82
2023/10/10 00:31:26;;;;;;;14.73;7.15;;;;;;;11.22;63.93;100311.72;5154225;27;20024;-82
2023/10/10 00:33:52;;;;;;;18.23;8.70;;;;;;;10.98;64.95;100291.16;5156757;27;20082;-83
2023/10/10 00:36:22;;;;;;;19.85;8.95;;;;;;;10.77;65.39;100287.78;5145381;27;20051;-86
2023/10/10 00:39:30;;;;;;;20.80;8.48;;;;;;;11.19;63.90;100293.44;5145482;27;20133;-86
2023/10/10 00:44:12;;;;;;;13.43;7.53;;;;;;;11.19;64.08;100304.13;5145815;27;20031;-83
2023/10/10 00:46:39;;;;;;;18.83;6.93;;;;;;;11.25;63.57;100283.75;5146017;27;20163;-84
2023/10/10 00:49:07;;;;;;;14.23;6.82;;;;;;;11.37;63.92;100305.22;5134812;27;20035;-84
2023/10/10 00:51:33;;;;;;;15.75;6.68;;;;;;;10.91;65.54;100295.69;5134433;27;20064;-83
2023/10/10 00:54:25;;;;;;;16.48;6.25;;;;;;;11.11;65.12;100274.22;5137261;27;20123;-82
2023/10/10 00:56:55;;;;;;;13.57;7.03;;;;;;;11.27;65.26;100287.84;5132998;27;20048;-82
2023/10/10 00:59:34;;;;;;;12.95;6.00;;;;;;;11.26;64.67;100291.56;5141039;27;20022;-83
2023/10/10 01:02:01;;;;;;;14.60;6.63;;;;;;;11.22;64.84;100268.19;5150984;27;20031;-82
2023/10/10 01:04:48;;;;;;;14.43;6.28;;;;;;;11.62;63.60;100267.81;5150269;27;20069;-82
2023/10/10 01:07:18;;;;;;;16.08;6.90;;;;;;;11.60;63.04;100284.06;5133041;27;20110;-86
2023/10/10 01:09:55;;;;;;;18.77;7.63;;;;;;;11.63;62.46;100278.28;5142468;27;20038;-82
2023/10/10 01:12:35;;;;;;;15.80;7.15;;;;;;;11.25;63.81;100273.06;5136228;27;20031;-83
2023/10/10 01:15:13;;;;;;;14.55;7.43;;;;;;;10.47;67.75;100268.06;5114115;28;20513;-82
2023/10/10 01:17:38;;;;;;;15.98;6.82;;;;;;;10.18;69.50;100278.22;5112215;28;20119;-83
2023/10/10 01:20:45;;;;;;;12.57;6.55;;;;;;;10.01;66.12;100272.50;5142473;27;20589;-83
2023/10/10 01:22:57;;;;;;;12.20;6.30;;;;;;;9.45;67.86;100271.19;5134759;27;20147;-83
2023/10/10 01:33:14;;;;;;;15.57;7.43;;;;;;;9.84;68.34;100285.47;5148324;27;20030;-82
2023/10/10 01:35:41;;;;;;;17.75;7.10;;;;;;;10.00;68.38;100294.88;5141384;27;20031;-82
2023/10/10 01:38:32;;;;;;;13.88;6.30;;;;;;;10.14;68.16;100306.31;5153445;27;20022;-82
2023/10/10 01:40:58;;;;;;;14.27;6.47;;;;;;;9.86;68.27;100278.09;5128862;27;20111;-84
2023/10/10 01:43:24;;;;;;;12.43;6.15;;;;;;;9.88;68.62;100294.69;5146582;27;20512;-84
2023/10/10 01:46:08;;;;;;;11.15;6.38;;;;;;;9.86;70.00;100304.72;5142266;27;20117;-85
2023/10/10 01:48:43;;;;;;;13.43;6.28;;;;;;;9.53;70.39;100283.50;5110859;28;20112;-82
2023/10/10 01:51:08;;;;;;;12.38;6.30;;;;;;;9.26;69.35;100304.78;5135979;27;20043;-82
2023/10/10 01:53:40;;;;;;;16.45;6.40;;;;;;;9.84;66.61;100299.59;5151343;27;20052;-84
2023/10/10 01:56:06;;;;;;;11.52;6.18;;;;;;;10.27;64.77;100312.38;5131823;27;20416;-82
2023/10/10 01:58:36;;;;;;;13.60;5.57;;;;;;;10.18;65.65;100297.69;5132543;27;20038;-82
2023/10/10 02:01:19;;;;;;;14.95;6.40;;;;;;;10.48;64.62;100307.03;5147026;27;20074;-83
2023/10/10 02:03:50;;;;;;;14.43;6.50;;;;;;;10.59;64.90;100325.03;5144529;27;20543;-84
2023/10/10 02:06:27;;;;;;;13.70;6.38;;;;;;;10.15;66.12;100302.59;5132031;27;20050;-82
2023/10/10 02:09:10;;;;;;;13.73;6.90;;;;;;;10.36;65.71;100310.38;5112322;28;20031;-82
2023/10/10 02:11:35;;;;;;;13.57;6.15;;;;;;;10.96;63.66;100325.25;5145236;27;20034;-82
2023/10/10 02:14:02;;;;;;;13.48;6.57;;;;;;;10.68;63.65;100293.59;5149997;27;20030;-82
2023/10/10 02:16:35;;;;;;;14.43;6.72;;;;;;;10.87;63.35;100300.66;5131641;27;20439;-85
2023/10/10 02:19:15;;;;;;;16.52;8.45;;;;;;;10.70;64.27;100308.34;5128130;27;20400;-83
2023/10/10 02:21:44;;;;;;;13.32;6.55;;;;;;;10.70;64.03;100304.88;5142614;27;20042;-82
2023/10/10 02:26:54;;;;;;;13.15;5.95;;;;;;;10.70;65.57;100302.19;5132239;27;20038;-82
2023/10/10 02:29:48;;;;;;;16.10;6.78;;;;;;;10.33;66.74;100326.75;5131264;27;20575;-83
2023/10/10 02:32:13;;;;;;;17.63;6.70;;;;;;;9.97;68.40;100312.09;5131688;27;20080;-84
2023/10/10 02:34:42;;;;;;;14.07;6.20;;;;;;;9.96;68.57;100313.09;5135278;27;20031;-84
2023/10/10 02:39:56;;;;;;;14.33;6.77;;;;;;;9.68;71.85;100310.69;5132292;27;20027;-82
2023/10/10 02:42:23;;;;;;;14.52;6.50;;;;;;;9.44;71.66;100282.88;5133138;27;20264;-86
2023/10/10 02:44:57;;;;;;;16.13;5.97;;;;;;;9.12;70.87;100271.22;5140719;27;20623;-83
2023/10/10 02:47:36;;;;;;;11.90;6.07;;;;;;;9.33;71.28;100305.59;5152489;27;20037;-82
2023/10/10 02:52:59;;;;;;;12.63;6.28;;;;;;;8.89;69.33;100304.34;5120052;27;20073;-84
2023/10/10 02:55:33;;;;;;;13.80;6.55;;;;;;;8.78;68.75;100296.94;5137794;27;20084;-82
2023/10/10 02:57:59;;;;;;;14.88;5.10;;;;;;;8.60;69.13;100300.16;5129979;28;20100;-82
2023/10/10 03:02:53;;;;;;;14.48;5.70;;;;;;;8.98;66.31;100281.03;5145779;27;20031;-82
2023/10/10 03:05:37;;;;;;;15.13;5.80;;;;;;;9.47;66.35;100273.66;5141297;27;20031;-83
2023/10/10 03:08:13;;;;;;;16.17;5.65;;;;;;;9.78;65.93;100287.13;5144406;27;20047;-83
2023/10/10 03:10:45;;;;;;;12.07;5.70;;;;;;;9.36;69.34;100301.72;5133007;27;20076;-83
2023/10/10 03:13:27;;;;;;;12.45;5.65;;;;;;;9.61;69.32;100297.41;5146937;27;20030;-83
2023/10/10 03:15:55;;;;;;;11.27;5.80;;;;;;;9.82;68.56;100314.16;5130472;28;20031;-83
2023/10/10 03:18:30;;;;;;;11.40;5.70;;;;;;;9.64;69.79;100288.16;5131524;27;20488;-83
2023/10/10 03:21:12;;;;;;;13.55;5.70;;;;;;;9.90;68.33;100276.66;5134663;27;20038;-83
2023/10/10 03:23:52;;;;;;;10.30;5.28;;;;;;;10.05;68.67;100295.03;5150741;27;20464;-83
2023/10/10 03:26:19;;;;;;;10.15;5.32;;;;;;;10.47;67.26;100330.19;5149166;27;20054;-83
2023/10/10 03:28:47;;;;;;;14.60;5.88;;;;;;;9.86;69.53;100302.06;5135368;27;20519;-82
2023/10/10 03:39:23;;;;;;;10.55;4.95;;;;;;;10.21;69.34;100301.75;5109169;28;20627;-82
2023/10/10 05:23:52;;;;;;;12.70;5.20;;;;;;;10.34;68.68;100355.06;5113370;27;20039;-82
2023/10/10 05:26:20;;;;;;;11.82;5.18;;;;;;;10.24;69.69;100355.47;5132098;27;20050;-81
2023/10/10 05:28:47;;;;;;;10.93;5.20;;;;;;;10.03;69.77;100321.91;5133821;27;20047;-80
2023/10/10 05:31:17;;;;;;;10.98;5.15;;;;;;;10.36;70.13;100377.00;5132831;27;20046;-81
2023/10/10 05:33:43;;;;;;;10.82;5.00;;;;;;;10.03;72.93;100374.38;5133000;27;20114;-82
2023/10/10 05:36:09;;;;;;;14.60;6.05;;;;;;;10.51;70.90;100381.28;5144709;27;20466;-84
2023/10/10 05:38:39;;;;;;;17.90;6.95;;;;;;;10.53;70.80;100374.69;5132561;27;20023;-82
2023/10/10 05:41:10;;;;;;;11.02;5.18;;;;;;;10.35;72.22;100388.69;5130783;27;20615;-82
2023/10/10 05:43:36;;;;;;;14.00;5.85;;;;;;;10.44;71.26;100374.13;5136433;27;21062;-83
2023/10/10 05:46:04;;;;;;;12.35;5.40;;;;;;;10.54;70.92;100388.84;5140246;27;20041;-82
2023/10/10 05:48:31;;;;;;;11.07;5.70;;;;;;;10.40;71.63;100394.22;5138128;27;20129;-83
2023/10/10 05:51:01;;;;;;;11.43;5.70;;;;;;;10.36;73.97;100390.34;5132033;27;20031;-83
2023/10/10 05:53:26;;;;;;;12.15;5.53;;;;;;;10.39;73.24;100389.91;5132303;27;20081;-82
2023/10/10 05:55:58;;;;;;;14.75;6.50;;;;;;;10.93;70.95;100400.38;5132668;27;20459;-83
2023/10/10 05:58:24;;;;;;;15.57;6.32;;;;;;;10.93;71.63;100411.03;5128356;27;20071;-84
2023/10/10 06:00:50;;;;;;;11.23;6.18;;;;;;;11.04;70.34;100383.69;5130355;27;20011;-84
2023/10/10 06:03:18;;;;;;;13.88;6.53;;;;;;;11.10;70.46;100406.88;5132176;27;20029;-82
2023/10/10 06:05:49;;;;;;;19.50;6.80;;;;;;;10.89;70.06;100405.34;5139117;27;20073;-82
2023/10/10 06:08:15;;;;;;;13.45;7.05;;;;;;;11.25;69.38;100403.88;5142127;27;20458;-82
2023/10/10 06:10:41;;;;;;;15.93;8.18;;;;;;;11.49;67.76;100388.94;5129866;27;20027;-83
2023/10/10 06:13:07;;;;;;;14.80;7.55;;;;;;;12.18;66.55;100397.03;5130083;27;20034;-82
2023/10/10 06:15:33;;;;;;;37.58;16.42;;;;;;;12.55;62.29;100413.91;5131297;27;20713;-82
2023/10/10 06:18:11;;;;;;;25.17;11.75;;;;;;;12.62;62.95;100414.63;5133937;27;20042;-83
2023/10/10 06:20:44;;;;;;;34.00;14.65;;;;;;;13.18;61.16;100412.69;5135084;27;20030;-82
2023/10/10 06:23:14;;;;;;;40.95;15.70;;;;;;;13.25;60.86;100429.47;5128994;27;20156;-82
2023/10/10 06:25:40;;;;;;;31.77;15.65;;;;;;;13.44;59.32;100416.91;5131248;27;20015;-82
2023/10/10 06:28:07;;;;;;;26.40;11.98;;;;;;;13.65;58.90;100426.25;5130573;27;20031;-83
2023/10/10 06:30:39;;;;;;;19.88;10.93;;;;;;;13.70;60.82;100427.44;5132558;27;20034;-84
2023/10/10 06:33:15;;;;;;;24.02;10.65;;;;;;;14.26;58.33;100423.34;5130835;27;20119;-83
2023/10/10 06:35:41;;;;;;;20.17;8.68;;;;;;;14.88;55.10;100432.75;5133264;27;20023;-83
2023/10/10 06:38:10;;;;;;;11.50;6.47;;;;;;;14.84;55.63;100429.72;5134923;27;20030;-83
2023/10/10 06:40:53;;;;;;;14.52;6.50;;;;;;;15.02;54.93;100426.06;5131198;27;20052;-82
2023/10/10 06:43:22;;;;;;;16.33;5.80;;;;;;;15.58;53.60;100442.38;5129743;27;20046;-80
2023/10/10 06:45:56;;;;;;;10.00;4.60;;;;;;;15.78;52.10;100440.06;5134609;27;20026;-83
2023/10/10 06:48:22;;;;;;;16.73;5.40;;;;;;;15.61;53.53;100407.75;5134149;27;20034;-83
2023/10/10 06:50:49;;;;;;;15.80;5.60;;;;;;;15.72;54.90;100435.66;5133018;27;20037;-85
2023/10/10 06:53:28;;;;;;;14.45;5.20;;;;;;;15.51;56.06;100444.38;5128820;27;20031;-85
2023/10/10 06:55:54;;;;;;;22.63;11.43;;;;;;;15.41;54.96;100423.53;5127727;27;20077;-82
2023/10/10 06:58:20;;;;;;;29.10;17.23;;;;;;;15.74;54.56;100449.66;5129820;27;20505;-84
2023/10/10 07:00:45;;;;;;;12.32;5.95;;;;;;;15.33;55.69;100426.63;5128949;27;20019;-84
2023/10/10 07:03:19;;;;;;;13.20;5.13;;;;;;;15.30;55.38;100417.16;5129468;28;20022;-84
2023/10/10 07:05:45;;;;;;;12.70;6.75;;;;;;;15.60;55.37;100426.81;5129493;28;20492;-85
2023/10/10 07:08:19;;;;;;;9.65;4.88;;;;;;;15.93;54.06;100442.16;5129271;27;20027;-83
2023/10/10 07:10:45;;;;;;;11.27;5.20;;;;;;;16.11;54.46;100441.09;5130141;27;20475;-81
2023/10/10 07:13:18;;;;;;;15.00;6.55;;;;;;;15.96;54.98;100425.53;5124198;27;20035;-80
2023/10/10 07:15:51;;;;;;;11.50;5.35;;;;;;;16.27;51.95;100397.19;5127614;27;20027;-81
2023/10/10 07:18:22;;;;;;;12.10;4.18;;;;;;;16.30;52.61;100413.91;5132385;27;20034;-82
2023/10/10 07:21:30;;;;;;;10.65;5.40;;;;;;;16.07;54.09;100399.59;5128537;27;20034;-82
2023/10/10 07:24:02;;;;;;;9.75;4.47;;;;;;;16.58;53.33;100411.06;5125935;27;20043;-84
2023/10/10 07:26:41;;;;;;;11.43;5.10;;;;;;;16.92;53.27;100426.28;5130782;27;20626;-84
2023/10/10 07:31:54;;;;;;;13.30;6.07;;;;;;;17.29;51.73;100420.25;5130796;28;20083;-81
2023/10/10 07:34:34;;;;;;;12.23;5.53;;;;;;;17.63;51.16;100426.19;5130817;27;20031;-85
2023/10/10 07:37:08;;;;;;;10.65;4.50;;;;;;;17.34;52.02;100418.38;5128954;28;20443;-82
2023/10/10 07:39:54;;;;;;;10.93;4.38;;;;;;;17.61;52.24;100410.28;5132675;27;20490;-82
2023/10/10 07:42:27;;;;;;;8.38;4.10;;;;;;;17.71;50.51;100414.94;5130985;27;20031;-82
2023/10/10 07:44:54;;;;;;;13.30;4.88;;;;;;;17.44;51.38;100413.09;5134328;27;20129;-82
2023/10/10 07:47:25;;;;;;;12.05;4.60;;;;;;;17.82;49.82;100440.13;5146483;27;20021;-82
2023/10/10 07:50:08;;;;;;;14.52;5.50;;;;;;;17.76;50.86;100416.88;5133682;27;20061;-83
2023/10/10 07:52:35;;;;;;;11.43;5.45;;;;;;;17.63;49.80;100394.66;5129025;28;20039;-84
2023/10/10 07:55:04;;;;;;;9.43;5.27;;;;;;;18.43;48.77;100428.94;5135927;27;20458;-83
2023/10/10 07:57:55;;;;;;;11.32;4.28;;;;;;;19.14;47.06;100422.19;5149631;27;20453;-86
2023/10/10 08:00:17;;;;;;;11.20;4.82;;;;;;;19.51;45.23;100426.56;5136568;27;20027;-82
2023/10/10 08:02:49;;;;;;;11.20;4.65;;;;;;;19.83;46.01;100420.94;5143278;27;20392;-85
2023/10/10 08:05:19;;;;;;;11.10;4.50;;;;;;;19.84;44.69;100419.88;5132521;27;20027;-83
2023/10/10 08:07:45;;;;;;;9.27;4.22;;;;;;;20.20;43.52;100428.72;5144752;27;20034;-84
2023/10/10 08:10:29;;;;;;;13.95;4.45;;;;;;;20.46;43.08;100437.59;5132995;27;20105;-82
2023/10/10 08:13:00;;;;;;;10.40;4.45;;;;;;;19.85;43.38;100424.19;5140022;27;20031;-80
2023/10/10 08:15:26;;;;;;;11.05;4.80;;;;;;;19.85;44.62;100432.28;5153675;27;20019;-84
2023/10/10 08:17:54;;;;;;;13.35;4.60;;;;;;;19.89;44.05;100427.97;5148976;27;20396;-83
2023/10/10 08:23:24;;;;;;;8.80;3.70;;;;;;;21.06;43.23;100418.69;5125481;27;20038;-83
2023/10/10 08:25:50;;;;;;;9.15;3.35;;;;;;;21.06;41.57;100397.00;5149662;27;20027;-82
2023/10/10 08:28:16;;;;;;;9.43;3.10;;;;;;;21.07;41.93;100387.75;5143542;27;20023;-82
2023/10/10 08:30:41;;;;;;;7.65;3.30;;;;;;;21.65;40.24;100413.41;5146909;27;20037;-83
2023/10/10 08:33:06;;;;;;;8.80;4.03;;;;;;;21.71;40.84;100416.88;5134414;27;20035;-88
2023/10/10 08:35:38;;;;;;;9.88;3.83;;;;;;;21.85;39.42;100439.56;5134992;27;20065;-82
2023/10/10 08:38:07;;;;;;;7.90;3.17;;;;;;;22.02;40.40;100411.97;5147085;27;20460;-83
2023/10/10 08:40:35;;;;;;;6.45;3.00;;;;;;;22.14;39.57;100420.53;5141564;27;20387;-82
2023/10/10 08:43:06;;;;;;;9.95;3.40;;;;;;;22.08;39.32;100425.22;5137199;27;20027;-82
2023/10/10 08:45:40;;;;;;;11.02;3.35;;;;;;;22.19;39.68;100430.53;5133110;27;20130;-83
2023/10/10 08:48:12;;;;;;;10.07;3.42;;;;;;;22.49;38.79;100436.78;5150182;27;20118;-83
2023/10/10 08:50:40;;;;;;;6.22;2.92;;;;;;;22.36;38.03;100432.84;5137073;27;20415;-84
2023/10/10 08:53:26;;;;;;;7.40;3.15;;;;;;;22.35;38.45;100442.09;5131940;27;20083;-84
2023/10/10 08:55:56;;;;;;;9.38;3.63;;;;;;;22.51;38.05;100434.56;5133153;27;20039;-83
2023/10/10 08:58:22;;;;;;;6.75;3.45;;;;;;;22.77;38.15;100416.84;5131714;27;20027;-86
2023/10/10 09:00:51;;;;;;;11.88;3.40;;;;;;;23.18;37.17;100448.16;5141452;27;20035;-83
2023/10/10 09:03:17;;;;;;;9.65;3.30;;;;;;;23.64;36.23;100448.28;5149291;27;20100;-82
2023/10/10 09:05:43;;;;;;;11.10;3.58;;;;;;;23.53;36.27;100427.75;5132853;27;20380;-81
2023/10/10 09:08:14;;;;;;;13.40;3.65;;;;;;;23.40;36.20;100433.97;5133231;27;20033;-83
2023/10/10 09:10:42;;;;;;;9.02;3.00;;;;;;;23.52;35.70;100447.94;5137149;27;20030;-83
2023/10/10 09:13:09;;;;;;;11.10;2.88;;;;;;;23.71;35.86;100436.19;5152675;27;20077;-85
2023/10/10 09:15:36;;;;;;;13.40;3.47;;;;;;;23.81;36.05;100455.13;5154611;27;20027;-83
2023/10/10 09:18:22;;;;;;;9.23;3.55;;;;;;;23.84;35.78;100454.50;5136648;27;20035;-83
2023/10/10 09:20:47;;;;;;;7.60;3.45;;;;;;;23.37;36.38;100450.88;5137170;27;20031;-83
2023/10/10 09:23:24;;;;;;;9.45;3.38;;;;;;;23.51;36.10;100438.13;5133111;27;20027;-83
2023/10/10 09:26:12;;;;;;;10.13;3.17;;;;;;;23.65;35.33;100436.28;5132781;27;20546;-83
2023/10/10 09:28:55;;;;;;;10.85;3.33;;;;;;;23.46;36.11;100454.56;5120342;27;20045;-83
2023/10/10 09:31:26;;;;;;;8.55;3.03;;;;;;;23.35;36.49;100447.63;5131023;27;20548;-85
2023/10/10 09:33:56;;;;;;;11.07;3.58;;;;;;;23.53;35.99;100446.81;5131619;27;20031;-82
2023/10/10 09:36:26;;;;;;;8.48;3.17;;;;;;;23.07;37.50;100444.78;5130956;27;20438;-81
2023/10/10 09:39:08;;;;;;;10.27;3.35;;;;;;;23.09;37.21;100428.97;5131103;27;20030;-82
2023/10/10 09:50:28;;;;;;;10.43;2.88;;;;;;;23.08;38.33;100432.78;5132781;27;20873;-81
2023/10/10 09:52:49;;;;;;;7.25;2.90;;;;;;;22.95;39.27;100439.75;5135186;27;20401;-82
2023/10/10 09:58:00;;;;;;;8.90;2.28;;;;;;;22.82;39.24;100441.28;5141649;27;20038;-81
2023/10/10 10:09:17;;;;;;;7.35;2.50;;;;;;;22.90;39.72;100426.19;5139002;27;20055;-82
2023/10/10 10:11:56;;;;;;;7.57;2.97;;;;;;;22.88;38.84;100417.53;5127774;27;20438;-85
2023/10/10 10:14:36;;;;;;;10.88;3.03;;;;;;;22.85;39.61;100405.31;5135468;27;20031;-83
2023/10/10 10:17:16;;;;;;;6.72;2.50;;;;;;;22.83;39.32;100415.69;5133202;27;20027;-82
2023/10/10 10:19:45;;;;;;;7.93;2.80;;;;;;;22.74;39.43;100416.63;5152618;27;20042;-81
2023/10/10 10:22:17;;;;;;;6.47;3.13;;;;;;;22.78;39.84;100402.19;5141793;27;20038;-83
2023/10/10 10:24:44;;;;;;;9.50;2.80;;;;;;;22.73;40.22;100423.97;5138668;27;20030;-83
2023/10/10 10:27:24;;;;;;;5.95;2.70;;;;;;;22.78;40.83;100407.63;5146999;27;20035;-82
2023/10/10 10:30:07;;;;;;;10.20;2.67;;;;;;;22.66;40.20;100389.00;5136094;27;20414;-82
2023/10/10 10:32:39;;;;;;;7.10;2.45;;;;;;;22.71;40.02;100379.16;5137357;27;20023;-82
2023/10/10 10:35:12;;;;;;;8.60;2.70;;;;;;;22.72;40.67;100381.59;5130953;27;20034;-82
2023/10/10 10:37:39;;;;;;;8.45;2.47;;;;;;;22.94;40.23;100408.19;5131578;27;20404;-84
2023/10/10 10:42:41;;;;;;;7.43;2.10;;;;;;;23.46;39.43;100411.81;5134948;27;20518;-85
2023/10/10 10:45:26;;;;;;;9.20;2.70;;;;;;;23.47;39.13;100404.44;5131042;27;20049;-83
2023/10/10 10:47:59;;;;;;;7.45;2.53;;;;;;;23.51;38.84;100385.63;5130671;27;20050;-84
2023/10/10 10:50:29;;;;;;;8.70;2.83;;;;;;;23.78;38.79;100398.50;5130810;27;20031;-83
2023/10/10 10:52:59;;;;;;;7.82;2.30;;;;;;;23.99;38.17;100367.09;5132305;27;20091;-82
2023/10/10 10:55:28;;;;;;;7.13;3.13;;;;;;;24.33;37.63;100393.13;5110158;28;20031;-83
2023/10/10 10:58:20;;;;;;;9.52;3.42;;;;;;;24.42;37.39;100376.88;5121213;27;20047;-80
2023/10/10 11:03:33;;;;;;;6.50;2.53;;;;;;;23.99;38.01;100348.03;5137388;27;20510;-81
2023/10/10 11:05:59;;;;;;;11.88;3.05;;;;;;;24.21;37.93;100379.19;5151827;27;20029;-81
2023/10/10 11:14:18;;;;;;;6.22;2.53;;;;;;;24.38;38.22;100376.69;5140309;27;20590;-82
2023/10/10 11:16:45;;;;;;;9.07;2.60;;;;;;;24.56;37.93;100358.63;5146245;27;20019;-82
2023/10/10 11:21:56;;;;;;;6.43;2.47;;;;;;;24.51;37.14;100371.56;5147714;27;20752;-84
2023/10/10 11:24:24;;;;;;;6.25;2.50;;;;;;;24.44;37.39;100369.22;5129634;27;20039;-82
2023/10/10 11:32:24;;;;;;;8.38;2.60;;;;;;;24.17;38.79;100359.09;5130143;28;20049;-81
2023/10/10 11:34:56;;;;;;;6.57;3.08;;;;;;;23.99;38.96;100369.81;5130010;28;20050;-82
2023/10/10 11:37:26;;;;;;;7.50;2.47;;;;;;;23.87;39.71;100358.59;5129974;28;20045;-82
2023/10/10 11:43:13;;;;;;;7.22;2.40;;;;;;;23.78;40.82;100363.13;5130763;27;20039;-82
2023/10/10 11:45:39;;;;;;;10.63;2.33;;;;;;;23.88;40.83;100368.38;5136814;27;20032;-82
2023/10/10 11:48:15;;;;;;;7.40;1.80;;;;;;;23.87;39.93;100372.22;5131832;27;20043;-81
2023/10/10 11:50:56;;;;;;;7.30;1.70;;;;;;;23.47;41.27;100364.41;5135206;27;20027;-81
2023/10/10 11:53:28;;;;;;;8.50;1.85;;;;;;;23.40;42.13;100361.28;5144352;27;20035;-81
2023/10/10 11:55:55;;;;;;;6.70;1.88;;;;;;;23.50;40.63;100365.75;5135061;27;20023;-82
2023/10/10 11:58:21;;;;;;;5.85;1.55;;;;;;;23.51;40.55;100359.19;5135470;27;20027;-82
2023/10/10 12:01:04;;;;;;;5.47;1.60;;;;;;;23.50;41.29;100368.47;5135992;27;20047;-84
2023/10/10 12:06:03;;;;;;;4.63;1.70;;;;;;;23.37;40.90;100361.06;5135384;27;20023;-81
2023/10/10 12:08:29;;;;;;;5.45;2.10;;;;;;;23.47;40.91;100358.19;5139309;27;20470;-82
2023/10/10 12:11:06;;;;;;;6.30;2.15;;;;;;;23.66;40.45;100374.47;5152076;27;20372;-81
2023/10/10 12:16:01;;;;;;;4.45;1.55;;;;;;;23.66;40.90;100358.13;5159522;27;20530;-81
2023/10/10 12:18:30;;;;;;;5.70;1.80;;;;;;;23.65;40.41;100332.81;5142075;27;20027;-82
2023/10/10 12:21:01;;;;;;;7.50;1.60;;;;;;;23.50;41.31;100346.69;5143289;27;20023;-83
2023/10/10 12:23:30;;;;;;;3.03;1.17;;;;;;;23.54;40.87;100345.00;5143419;27;20030;-83
2023/10/10 12:25:56;;;;;;;2.50;1.23;;;;;;;23.65;41.43;100364.69;5153283;27;20038;-84
2023/10/10 12:28:22;;;;;;;2.28;1.05;;;;;;;23.72;41.46;100358.84;5140587;27;20023;-85
2023/10/10 12:30:47;;;;;;;7.82;1.58;;;;;;;23.55;41.00;100338.44;5144207;27;20023;-82
2023/10/10 12:33:13;;;;;;;4.75;1.60;;;;;;;23.59;41.55;100344.91;5139641;27;20095;-88
2023/10/10 12:35:47;;;;;;;3.58;1.50;;;;;;;23.72;40.67;100353.38;5149531;27;20058;-83
2023/10/10 12:38:20;;;;;;;3.22;1.20;;;;;;;23.66;41.22;100371.75;5146164;27;20030;-81
2023/10/10 12:40:54;;;;;;;4.72;1.30;;;;;;;23.58;40.94;100348.75;5165760;27;20031;-82
2023/10/10 12:43:24;;;;;;;9.13;1.40;;;;;;;23.57;41.27;100368.88;5148939;27;20022;-82
2023/10/10 12:45:51;;;;;;;3.25;1.00;;;;;;;23.22;41.99;100335.72;5155451;27;20026;-81
2023/10/10 12:48:20;;;;;;;5.07;1.40;;;;;;;23.27;41.71;100332.09;5150535;27;20045;-81
2023/10/10 12:50:52;;;;;;;5.80;1.92;;;;;;;23.59;41.03;100361.22;5148498;27;20035;-83
2023/10/10 12:53:20;;;;;;;5.00;1.73;;;;;;;23.69;40.75;100337.66;5147736;27;20799;-83
2023/10/10 12:55:52;;;;;;;6.68;2.20;;;;;;;23.57;41.82;100340.88;5156681;27;20055;-82
2023/10/10 12:58:20;;;;;;;3.97;1.55;;;;;;;23.79;41.50;100353.84;5143479;27;20019;-83
2023/10/10 13:00:52;;;;;;;7.75;1.50;;;;;;;23.61;41.02;100341.88;5146662;27;20027;-81
2023/10/10 13:03:36;;;;;;;6.68;1.40;;;;;;;23.51;41.33;100325.72;5156697;27;20040;-82
2023/10/10 13:06:03;;;;;;;3.72;1.40;;;;;;;23.84;40.83;100348.28;5125826;27;20027;-81
2023/10/10 13:08:39;;;;;;;4.22;2.17;;;;;;;23.65;41.69;100354.59;5135796;27;20487;-82
2023/10/10 13:11:32;;;;;;;4.95;1.60;;;;;;;23.65;41.78;100346.41;5139303;27;20027;-82
2023/10/10 13:14:08;;;;;;;3.50;1.50;;;;;;;23.52;41.71;100360.81;5150160;27;20062;-82
2023/10/10 13:19:06;;;;;;;3.80;1.50;;;;;;;23.05;42.78;100343.63;5134051;27;20076;-85
2023/10/10 13:21:34;;;;;;;4.05;1.40;;;;;;;23.03;42.96;100349.34;5146821;27;20034;-81
2023/10/10 13:24:00;;;;;;;4.40;1.33;;;;;;;23.00;43.15;100366.22;5132001;27;20023;-82
2023/10/10 13:26:27;;;;;;;3.55;1.50;;;;;;;23.06;42.77;100350.66;5132952;27;20114;-84
2023/10/10 13:28:53;;;;;;;3.58;1.60;;;;;;;22.83;43.03;100349.63;5132344;27;20110;-82
2023/10/10 13:31:24;;;;;;;4.38;1.60;;;;;;;22.87;43.08;100351.44;5147538;27;20113;-81
2023/10/10 13:33:53;;;;;;;8.70;1.70;;;;;;;22.79;43.42;100343.97;5151535;27;20037;-84
2023/10/10 13:36:18;;;;;;;6.05;1.77;;;;;;;22.86;43.38;100347.13;5140313;27;20026;-83
2023/10/10 13:38:48;;;;;;;4.30;1.60;;;;;;;22.94;43.09;100361.16;5140376;27;20037;-86
2023/10/10 13:41:19;;;;;;;7.32;1.92;;;;;;;22.55;43.90;100321.47;5133401;27;20407;-82
2023/10/10 13:43:51;;;;;;;7.30;1.88;;;;;;;22.73;43.82;100353.28;5132844;27;20027;-81
2023/10/10 13:46:20;;;;;;;5.78;2.10;;;;;;;22.77;44.26;100362.47;5133800;27;20114;-81
2023/10/10 13:48:48;;;;;;;11.27;3.05;;;;;;;22.70;44.12;100356.59;5131877;27;20043;-85
2023/10/10 13:51:15;;;;;;;4.50;2.10;;;;;;;22.63;44.35;100350.72;5131400;27;20043;-84
2023/10/10 13:53:43;;;;;;;5.38;2.08;;;;;;;22.57;44.82;100362.75;5133698;27;20023;-85
2023/10/10 13:56:10;;;;;;;6.25;2.58;;;;;;;22.66;45.13;100371.88;5133497;27;20059;-83
2023/10/10 13:58:37;;;;;;;7.25;2.10;;;;;;;22.67;45.41;100379.72;5128605;27;20023;-85
2023/10/10 14:03:48;;;;;;;5.03;1.90;;;;;;;22.80;44.52;100367.34;5128693;27;20039;-83
2023/10/10 14:06:22;;;;;;;6.15;1.98;;;;;;;22.79;44.38;100364.91;5131181;27;20027;-80
2023/10/10 14:08:48;;;;;;;4.47;1.73;;;;;;;22.78;44.54;100385.84;5130674;27;20046;-82
2023/10/10 14:11:21;;;;;;;4.88;1.80;;;;;;;22.84;44.04;100364.81;5135386;27;20103;-81
2023/10/10 14:13:56;;;;;;;5.70;2.00;;;;;;;22.89;44.29;100372.13;5130814;27;20109;-84
2023/10/10 14:16:23;;;;;;;7.43;1.88;;;;;;;22.75;45.35;100383.72;5134074;27;20160;-84
2023/10/10 14:18:52;;;;;;;7.77;2.10;;;;;;;22.83;44.04;100360.50;5129089;27;20041;-82
2023/10/10 14:21:27;;;;;;;6.40;1.70;;;;;;;22.79;44.16;100381.22;5124307;27;20027;-81
2023/10/10 14:24:07;;;;;;;6.05;1.90;;;;;;;22.81;44.34;100384.47;5133769;27;20025;-84
2023/10/10 14:26:36;;;;;;;4.38;1.33;;;;;;;22.74;44.82;100384.81;5143761;27;20020;-84
2023/10/10 14:29:06;;;;;;;4.20;0.93;;;;;;;22.78;44.04;100391.28;5131457;27;20051;-83
2023/10/10 14:31:42;;;;;;;5.57;1.02;;;;;;;22.86;43.32;100376.22;5125495;27;20022;-86
2023/10/10 14:34:10;;;;;;;2.47;0.90;;;;;;;22.76;43.16;100369.03;5130209;27;20527;-85
2023/10/10 14:36:39;;;;;;;5.13;1.10;;;;;;;22.59;43.60;100341.53;5132939;27;20022;-83
2023/10/10 14:39:08;;;;;;;2.58;1.00;;;;;;;22.75;43.58;100372.84;5131715;27;20042;-85
2023/10/10 14:41:34;;;;;;;4.82;1.00;;;;;;;22.84;44.17;100395.56;5129554;27;20100;-83
2023/10/10 14:44:00;;;;;;;1.67;0.90;;;;;;;22.92;43.27;100382.41;5131802;27;20103;-82
2023/10/10 14:46:31;;;;;;;2.90;0.75;;;;;;;22.63;44.16;100375.19;5144638;27;20483;-85
2023/10/10 14:49:16;;;;;;;1.70;0.80;;;;;;;22.78;44.26;100398.63;5117127;27;20051;-84
2023/10/10 14:51:48;;;;;;;3.10;1.20;;;;;;;22.75;44.21;100391.88;5136373;27;20038;-84